Guthrie, North Dakota
Current Conditions -  °F | °C
As of 2:55 AM on Saturday 29 Nov 2014 (Local Time) from K5H4 Reporting Station
Scattered Clouds Scattered Clouds  
Wind Chill:   Ceiling: Unl
Heat Index: 16°   Visibility: 10mi
Dew Point: 14°   Wind: 5mph
Humidity: 93%   Direction: 90°E
Pressure: 29.38"   Gusts: NA
Location:  47.8494°N, 100.392°W
Report Text: K5H4 290855Z AUTO 09004KT 10SM SCT090 M09/M10 A2938 RMK AO2
Loading
Personal Weather Stations






























Interactive Weather Map New forecast layout! Learn more

10-Day Weather Forecast

Advertisements
Track Severe Weather on mobile